Ashton, MD (20861)

1:32 PM EDT on July 30, 2016 (GMT -0400)
Ashton, MD | | Change Station

Elev 510 ft 39.15 °N, 77.01 °W | Updated 8 seconds ago

Mostly Cloudy
Mostly Cloudy
81.9 °F
Feels Like 89 °F
N
1.3
Wind Variable Wind from South
Gusts 2.5 mph

Today
High -- | Low -- °F
--% Chance of Precip.
Yesterday
High -- | Low -- °F
Precip. -- in
Pressure 30.02 in
Visibility 10.0 miles
Clouds Few 1300 ft
Scattered Clouds 2300 ft
Mostly Cloudy 6000 ft
Heat Index 89 °F
Dew Point 75 °F
Humidity 80%
Rainfall 0.00 in
Snow Depth Not available.
6:07 AM 8:21 PM
Waning Crescent, 12% visible
METAR KGAI 301715Z AUTO 17003KT 10SM VCTS FEW013 SCT023 BKN060 25/22 A3002 RMK AO1 LTG DSNT N TSB15 P0001
Pressure 30.02 in
Visibility 10.0 miles
Clouds Few 1300 ft
Scattered Clouds 2300 ft
Mostly Cloudy 6000 ft
Heat Index 89 °F
Dew Point 75 °F
Humidity 80%
Rainfall 0.00 in
Snow Depth Not available.
6:07 AM 8:21 PM
Waning Crescent, 12% visible
METAR KGAI 301715Z AUTO 17003KT 10SM VCTS FEW013 SCT023 BKN060 25/22 A3002 RMK AO1 LTG DSNT N TSB15 P0001

10-Day Weather Forecast

Almanac

Astronomy

Jul. 30, 2016 Rise Set
Actual Time
Civil Twilight
Nautical Twilight
Astronomical Twilight
Moon
Length of Visible Light
Length of Day
Tomorrow will be .
, % of the Moon is Illuminated

Today's Extremes

State Highs State Lows

Community

WunderPhotos

Upload Photos

1,928,600 photos uploaded!

WunderBlog® & News

Nearby

Air Quality

  Air Quality AQ Index Pollutant
Not available.

Snow Depth

Station Depth Elevation

Earthquake Activity

City Distance Mag. Time & Date
Minimum magnitude displayed is 2.5.

Coastal Water Temperatures

Place Temperature

Stations

Nearby Weather Stations

Station Location Temp. Windchill Dew Point Humidity Wind Precip. Elev Updated Type
                   

Watches & Warnings

There are currently no watches in effect.